Ampthill, VA

11:31 AM EDT on October 30, 2014 (GMT -0400)
KF4AUZ Weather (Chesterfield, VA) | Change Station
CLOSE
Current Station
Personal Weather Station
Location: Richmond, VA
Elevation: 167 ft
Nearby Weather Stations

Elev 167 ft 37.40 °N, 77.46 °W | Updated 14 seconds ago

Clear
Clear
57.2 °F
Feels Like 57.2 °F
N
4.2
Wind Variable Wind from ENE
Gusts 4.9 mph

Today
High -- | Low -- °F
--% Chance of Precip.
Yesterday
High -- | Low -- °F
Precip. -- in
7:32 AM 6:13 PM
Waxing Crescent, 45% visible
Pressure 30.08 in
Visibility 10.0 miles
Clouds Clear
Dew Point 40 °F
Humidity 52%
Rainfall 0.00 in
Snow Depth Not available.
UV 1.0 out of 12
Pollen .10 out of 12
Air Quality Not available.
Flu Activity Not available.
METAR KFCI 301455Z AUTO 03008KT 10SM CLR 14/02 A3008 RMK AO1 52010

More Conditions Fewer Conditions

Pressure 30.08 in
Visibility 10.0 miles
Clouds Clear
Dew Point 40 °F
Humidity 52%
Rainfall 0.00 in
Snow Depth Not available.
UV 1.0 out of 12
Pollen .10 out of 12
Air Quality Not available.
Flu Activity Not available.
METAR KFCI 301455Z AUTO 03008KT 10SM CLR 14/02 A3008 RMK AO1 52010

More Conditions Fewer Conditions

10-Day Weather Forecast

Almanac

Astronomy

Oct. 30, 2014 Rise Set
Actual Time
Civil Twilight
Nautical Twilight
Astronomical Twilight
Moon
Length of Visible Light
Length of Day
Tomorrow will be .
, % of the Moon is Illuminated

Today's Extremes

State Highs State Lows

Community

WunderPhotos

Upload Photos

1,766,387 photos uploaded!

WunderBlogs® & News

Nearby

Air Quality

  Air Quality AQ Index Pollutant
Not available.

Snow Depth

Station Depth Elevation

Earthquake Activity

City Distance Mag. Time & Date
Minimum magnitude displayed is 2.5.

Coastal Water Temperatures

Place Temperature

Nearby Weather Stations